createdAt,value
2018-04-11T00:00:05.646Z,18.60
2018-04-11T00:02:40.308Z,17.23
2018-04-11T00:05:14.920Z,17.23
2018-04-11T00:07:49.547Z,18.30
2018-04-11T00:10:24.174Z,17.87
2018-04-11T00:12:58.592Z,16.80
2018-04-11T00:15:32.995Z,16.90
2018-04-11T00:18:07.639Z,16.97
2018-04-11T00:20:42.150Z,16.27
2018-04-11T00:23:16.705Z,15.07
2018-04-11T00:25:51.948Z,15.63
2018-04-11T00:28:26.562Z,16.27
2018-04-11T00:31:01.907Z,14.53
2018-04-11T00:33:36.546Z,14.60
2018-04-11T00:36:11.775Z,14.60
2018-04-11T00:38:46.444Z,15.83
2018-04-11T00:41:21.143Z,16.20
2018-04-11T00:43:55.742Z,17.37
2018-04-11T00:46:30.166Z,15.63
2018-04-11T00:49:04.682Z,16.53
2018-04-11T00:51:39.345Z,17.07
2018-04-11T00:54:14.658Z,18.93
2018-04-11T00:56:49.332Z,18.93
2018-04-11T00:59:23.907Z,18.73
2018-04-11T01:01:58.566Z,20.10
2018-04-11T01:04:33.044Z,17.87
2018-04-11T01:07:07.610Z,16.90
2018-04-11T01:09:43.008Z,16.03
2018-04-11T01:12:17.609Z,18.73
2018-04-11T01:14:52.110Z,16.33
2018-04-11T01:17:26.540Z,17.60
2018-04-11T01:20:01.140Z,17.43
2018-04-11T01:22:35.663Z,15.43
2018-04-11T01:25:11.049Z,20.63
2018-04-11T01:27:45.650Z,21.07
2018-04-11T01:30:20.919Z,19.20
2018-04-11T01:32:55.377Z,21.97
2018-04-11T01:35:29.991Z,20.17
2018-04-11T01:38:04.429Z,19.07
2018-04-11T01:40:39.807Z,19.90
2018-04-11T01:43:14.217Z,17.97
2018-04-11T01:45:48.829Z,19.77
2018-04-11T01:48:23.432Z,19.33
2018-04-11T01:50:58.048Z,21.37
2018-04-11T01:53:33.498Z,20.23
2018-04-11T01:56:08.075Z,18.53
2018-04-11T01:58:42.643Z,20.27
2018-04-11T02:01:17.236Z,22.03
2018-04-11T02:03:51.766Z,25.57
2018-04-11T02:06:27.178Z,22.07
2018-04-11T02:09:01.855Z,22.47
2018-04-11T02:11:36.442Z,24.93
2018-04-11T02:14:11.072Z,21.10
2018-04-11T02:16:45.567Z,23.00
2018-04-11T02:19:20.113Z,23.27
2018-04-11T02:21:54.717Z,26.23
2018-04-11T02:24:29.306Z,27.47
2018-04-11T02:27:03.865Z,26.13
2018-04-11T02:29:38.574Z,25.43
2018-04-11T02:32:13.350Z,26.60
2018-04-11T02:34:49.026Z,23.37
2018-04-11T02:37:23.596Z,25.77
2018-04-11T02:39:58.159Z,23.10
2018-04-11T02:42:33.457Z,20.10
2018-04-11T02:45:08.006Z,20.27
2018-04-11T02:47:42.527Z,25.50
2018-04-11T02:50:17.205Z,22.80
2018-04-11T02:52:52.446Z,28.03
2018-04-11T02:55:26.952Z,24.90
2018-04-11T02:58:01.720Z,23.30
2018-04-11T03:00:37.064Z,24.57
2018-04-11T03:03:11.669Z,27.10
2018-04-11T03:05:46.288Z,29.40
2018-04-11T03:08:20.772Z,27.27
2018-04-11T03:10:56.050Z,29.33
2018-04-11T03:13:31.399Z,30.00
2018-04-11T03:16:05.988Z,29.83
2018-04-11T03:18:41.299Z,28.37
2018-04-11T03:21:16.541Z,30.83
2018-04-11T03:23:51.016Z,28.90
2018-04-11T03:26:25.608Z,27.90
2018-04-11T03:29:00.174Z,32.27
2018-04-11T03:31:34.709Z,29.73
2018-04-11T03:34:09.372Z,28.60
2018-04-11T03:36:43.833Z,26.53
2018-04-11T03:39:18.374Z,28.87
2018-04-11T03:41:52.945Z,34.17
2018-04-11T03:44:28.242Z,35.77
2018-04-11T03:47:02.887Z,37.77
2018-04-11T03:49:37.483Z,33.43
2018-04-11T03:52:11.993Z,37.30
2018-04-11T03:54:47.173Z,40.53
2018-04-11T03:57:21.801Z,38.10
2018-04-11T03:59:56.495Z,36.47
2018-04-11T04:02:30.934Z,41.10
2018-04-11T04:05:05.368Z,39.23
2018-04-11T04:07:40.046Z,39.27
2018-04-11T04:10:15.425Z,36.73
2018-04-11T04:12:49.996Z,33.77
2018-04-11T04:15:42.308Z,36.63
2018-04-11T04:18:34.902Z,39.07
2018-04-11T04:21:10.330Z,34.93
2018-04-11T04:23:44.951Z,35.00
2018-04-11T04:26:19.639Z,36.10
2018-04-11T04:28:54.186Z,35.13
2018-04-11T04:31:29.445Z,31.50
2018-04-11T04:34:04.065Z,33.23
2018-04-11T04:36:38.659Z,32.50
2018-04-11T04:39:13.942Z,33.97
2018-04-11T04:41:48.513Z,31.47
2018-04-11T04:44:23.122Z,33.67
2018-04-11T04:46:58.512Z,31.37
2018-04-11T04:49:33.170Z,30.53
2018-04-11T04:52:07.834Z,34.07
2018-04-11T04:54:43.116Z,34.13
2018-04-11T04:57:17.716Z,32.10
2018-04-11T04:59:47.051Z,32.73
2018-04-11T05:02:16.364Z,34.43
2018-04-11T05:04:45.697Z,35.83
2018-04-11T05:07:15.051Z,33.57
2018-04-11T05:09:44.374Z,35.37
2018-04-11T05:12:13.683Z,33.13
2018-04-11T05:14:43.809Z,33.37
2018-04-11T05:17:13.893Z,29.30
2018-04-11T05:19:43.216Z,29.47
2018-04-11T05:22:23.390Z,30.70
2018-04-11T05:24:56.212Z,35.10
2018-04-11T05:27:25.563Z,33.93
2018-04-11T05:29:55.680Z,33.97
2018-04-11T05:32:25.119Z,32.70
2018-04-11T05:34:54.432Z,31.40
2018-04-11T05:37:23.751Z,31.80
2018-04-11T05:39:53.120Z,37.00
2018-04-11T05:42:22.448Z,35.03
2018-04-11T05:44:51.761Z,30.93
2018-04-11T05:47:21.125Z,31.30
2018-04-11T05:49:51.255Z,30.33
2018-04-11T05:52:21.335Z,28.97
2018-04-11T05:54:50.670Z,28.53
2018-04-11T05:57:20.055Z,29.57
2018-04-11T05:59:49.409Z,32.33
2018-04-11T06:02:18.759Z,27.03
2018-04-11T06:04:48.169Z,24.40
2018-04-11T06:07:17.560Z,30.73
2018-04-11T06:09:46.944Z,28.80
2018-04-11T06:12:17.064Z,36.43
2018-04-11T06:14:46.415Z,30.97
2018-04-11T06:17:18.432Z,30.43
2018-04-11T06:19:48.037Z,32.17
2018-04-11T06:22:17.435Z,30.27
2018-04-11T06:24:46.772Z,29.83
2018-04-11T06:27:16.924Z,30.43
2018-04-11T06:29:46.266Z,28.97
2018-04-11T06:32:15.586Z,25.27
2018-04-11T06:34:44.960Z,29.63
2018-04-11T06:37:14.279Z,29.90
2018-04-11T06:39:43.612Z,30.70
2018-04-11T06:42:12.963Z,27.47
2018-04-11T06:44:42.357Z,35.83
2018-04-11T06:47:11.704Z,30.43
2018-04-11T06:49:41.112Z,25.80
2018-04-11T06:52:12.916Z,33.97
2018-04-11T06:54:43.007Z,31.73
2018-04-11T06:57:12.371Z,34.90
2018-04-11T06:59:41.708Z,35.80
2018-04-11T07:02:11.048Z,32.57
2018-04-11T07:04:41.197Z,39.27
2018-04-11T07:07:10.526Z,37.33
2018-04-11T07:09:39.899Z,43.77
2018-04-11T07:12:09.231Z,37.93
2018-04-11T07:14:38.602Z,36.20
2018-04-11T07:17:07.962Z,40.80
2018-04-11T07:19:37.366Z,40.53
2018-04-11T07:22:07.394Z,41.23
2018-04-11T07:24:38.269Z,43.07
2018-04-11T07:27:07.636Z,40.37
2018-04-11T07:29:37.037Z,46.73
2018-04-11T07:32:07.129Z,39.63
2018-04-11T07:34:36.462Z,36.23
2018-04-11T07:37:06.618Z,48.50
2018-04-11T07:39:35.933Z,45.10
2018-04-11T07:42:05.269Z,63.80
2018-04-11T07:44:34.631Z,56.17
2018-04-11T07:47:04.068Z,53.73
2018-04-11T07:49:33.429Z,57.30
2018-04-11T07:52:02.840Z,58.53
2018-04-11T07:54:32.228Z,59.10
2018-04-11T07:57:01.552Z,56.17
2018-04-11T07:59:30.891Z,51.63
2018-04-11T08:02:00.286Z,55.03
2018-04-11T08:04:29.645Z,47.10
2018-04-11T08:06:58.972Z,47.37
2018-04-11T08:09:28.383Z,55.37
2018-04-11T08:11:57.738Z,56.13
2018-04-11T08:14:27.852Z,64.83
2018-04-11T08:16:57.226Z,48.83
2018-04-11T08:19:26.577Z,45.77
2018-04-11T08:21:56.744Z,56.47
2018-04-11T08:24:26.122Z,52.77
2018-04-11T08:26:55.793Z,46.13
2018-04-11T08:29:25.183Z,64.93
2018-04-11T08:31:54.556Z,64.03
2018-04-11T08:34:23.905Z,67.47
2018-04-11T08:36:55.073Z,76.17
2018-04-11T08:39:24.424Z,73.20
2018-04-11T08:41:53.831Z,63.67
2018-04-11T08:44:23.177Z,66.23
2018-04-11T08:46:53.274Z,64.77
2018-04-11T08:49:23.045Z,60.90
2018-04-11T08:51:52.616Z,63.57
2018-04-11T08:54:21.949Z,67.17
2018-04-11T08:56:51.318Z,63.90
2018-04-11T08:59:21.439Z,64.57
2018-04-11T09:01:51.554Z,66.63
2018-04-11T09:04:21.766Z,68.00
2018-04-11T09:06:51.093Z,67.87
2018-04-11T09:09:21.028Z,70.90
2018-04-11T09:11:50.367Z,77.00
2018-04-11T09:14:19.771Z,74.37
2018-04-11T09:16:49.099Z,69.60
2018-04-11T09:19:18.440Z,76.23
2018-04-11T09:21:47.791Z,66.97
2018-04-11T09:24:17.117Z,65.30
2018-04-11T09:26:46.432Z,66.40
2018-04-11T09:29:16.561Z,64.47
2018-04-11T09:31:46.804Z,61.57
2018-04-11T09:34:16.108Z,67.23
2018-04-11T09:36:46.215Z,65.33
2018-04-11T09:39:15.548Z,73.50
2018-04-11T09:41:44.898Z,83.70
2018-04-11T09:44:14.974Z,75.83
2018-04-11T09:46:44.334Z,86.30
2018-04-11T09:49:14.465Z,74.70
2018-04-11T09:51:44.590Z,76.73
2018-04-11T09:54:14.568Z,75.27
2018-04-11T09:56:45.600Z,72.93
2018-04-11T09:59:15.260Z,70.77
2018-04-11T10:01:50.825Z,67.93
2018-04-11T10:04:20.145Z,70.60
2018-04-11T10:06:49.485Z,60.23
2018-04-11T10:09:19.629Z,66.90
2018-04-11T10:11:49.207Z,65.07
2018-04-11T10:14:18.543Z,61.53
2018-04-11T10:16:47.895Z,53.97
2018-04-11T10:19:17.239Z,56.23
2018-04-11T10:21:47.330Z,50.70
2018-04-11T10:24:16.705Z,56.17
2018-04-11T10:26:46.081Z,51.23
2018-04-11T10:29:15.444Z,53.60
2018-04-11T10:31:44.791Z,57.50
2018-04-11T10:34:14.125Z,50.13
2018-04-11T10:36:43.478Z,53.53
2018-04-11T10:39:13.600Z,52.43
2018-04-11T10:41:43.714Z,46.27
2018-04-11T10:44:13.833Z,49.30
2018-04-11T10:46:44.387Z,46.40
2018-04-11T10:49:13.847Z,54.27
2018-04-11T10:51:43.193Z,40.90
2018-04-11T10:54:12.533Z,43.73
2018-04-11T10:56:41.894Z,43.40
2018-04-11T10:59:11.995Z,44.87
2018-04-11T11:01:42.135Z,49.50
2018-04-11T11:04:12.357Z,43.40
2018-04-11T11:06:42.451Z,45.30
2018-04-11T11:09:11.801Z,43.37
2018-04-11T11:11:41.132Z,40.43
2018-04-11T11:14:10.448Z,35.97
2018-04-11T11:16:40.386Z,33.67
2018-04-11T11:19:10.496Z,29.30
2018-04-11T11:21:39.848Z,26.13
2018-04-11T11:24:09.973Z,23.20
2018-04-11T11:26:39.342Z,23.30
2018-04-11T11:29:10.327Z,22.27
2018-04-11T11:31:39.976Z,23.73
2018-04-11T11:34:09.331Z,22.47
2018-04-11T11:36:39.454Z,24.50
2018-04-11T11:39:08.803Z,21.23
2018-04-11T11:41:38.147Z,20.13
2018-04-11T11:44:07.742Z,20.60
2018-04-11T11:46:37.846Z,19.90
2018-04-11T11:49:07.277Z,18.43
2018-04-11T11:51:36.632Z,18.10
2018-04-11T11:54:05.971Z,13.23
2018-04-11T11:56:36.059Z,12.57
2018-04-11T11:59:05.403Z,13.70
2018-04-11T12:01:35.536Z,13.57
2018-04-11T12:04:04.934Z,13.13
2018-04-11T12:06:35.239Z,14.90
2018-04-11T12:09:09.940Z,13.77
2018-04-11T12:11:52.576Z,13.80
2018-04-11T12:14:22.123Z,19.90
2018-04-11T12:16:52.435Z,19.80
2018-04-11T12:19:21.808Z,20.07
2018-04-11T12:21:51.144Z,19.13
2018-04-11T12:24:20.511Z,17.10
2018-04-11T12:26:50.671Z,14.33
2018-04-11T12:29:20.744Z,15.30
2018-04-11T12:31:50.109Z,14.30
2018-04-11T12:34:19.432Z,13.40
2018-04-11T12:36:48.786Z,14.30
2018-04-11T12:39:18.161Z,17.60
2018-04-11T12:41:48.432Z,16.83
2018-04-11T12:44:17.747Z,17.60
2018-04-11T12:46:47.078Z,15.13
2018-04-11T12:49:16.486Z,15.47
2018-04-11T12:51:45.785Z,15.87
2018-04-11T12:54:15.144Z,13.00
2018-04-11T12:56:44.529Z,16.13
2018-04-11T12:59:14.698Z,17.70
2018-04-11T13:01:44.159Z,16.43
2018-04-11T13:04:14.288Z,16.13
2018-04-11T13:06:44.455Z,16.20
2018-04-11T13:09:13.792Z,16.97
2018-04-11T13:11:43.149Z,17.87
2018-04-11T13:14:12.578Z,19.33
2018-04-11T13:16:41.906Z,18.93
2018-04-11T13:19:11.291Z,18.17
2018-04-11T13:21:41.663Z,19.17
2018-04-11T13:24:10.979Z,18.70
2018-04-11T13:26:40.371Z,21.90
2018-04-11T13:29:09.716Z,18.03
2018-04-11T13:31:39.128Z,19.00
2018-04-11T13:34:08.436Z,18.57
2018-04-11T13:36:37.774Z,18.47
2018-04-11T13:39:07.896Z,19.30
2018-04-11T13:41:37.263Z,18.20
2018-04-11T13:44:08.104Z,19.57
2018-04-11T13:46:37.446Z,18.53
2018-04-11T13:49:06.765Z,18.60
2018-04-11T13:51:36.739Z,20.43
2018-04-11T13:54:06.162Z,19.43
2018-04-11T13:56:37.134Z,20.40
2018-04-11T13:59:06.488Z,21.87
2018-04-11T14:01:36.659Z,19.90
2018-04-11T14:04:06.006Z,20.23
2018-04-11T14:06:35.338Z,20.10
2018-04-11T14:09:06.502Z,19.97
2018-04-11T14:11:35.873Z,21.40
2018-04-11T14:14:06.006Z,22.50
2018-04-11T14:16:36.245Z,21.30
2018-04-11T14:19:06.265Z,17.37
2018-04-11T14:21:35.623Z,18.77
2018-04-11T14:24:05.583Z,22.17
2018-04-11T14:26:34.936Z,18.03
2018-04-11T14:29:04.308Z,18.27
2018-04-11T14:31:33.751Z,16.70
2018-04-11T14:34:03.051Z,17.40
2018-04-11T14:36:33.034Z,16.37
2018-04-11T14:39:02.439Z,12.97
2018-04-11T14:41:31.775Z,12.23
2018-04-11T14:44:01.128Z,11.20
2018-04-11T14:46:31.361Z,11.43
2018-04-11T14:49:00.713Z,10.93
2018-04-11T14:51:30.090Z,11.40
2018-04-11T14:53:59.457Z,11.67
2018-04-11T14:56:28.811Z,11.53
2018-04-11T14:58:58.152Z,11.60
2018-04-11T15:01:28.271Z,10.53
2018-04-11T15:03:58.367Z,13.93
2018-04-11T15:06:27.711Z,10.63
2018-04-11T15:08:57.060Z,10.63
2018-04-11T15:11:26.410Z,10.57
2018-04-11T15:13:56.542Z,11.00
2018-04-11T15:16:25.892Z,9.53
2018-04-11T15:18:55.226Z,9.70
2018-04-11T15:21:27.579Z,9.43
2018-04-11T15:23:56.919Z,9.10
2018-04-11T15:26:27.068Z,8.00
2018-04-11T15:28:56.391Z,9.93
2018-04-11T15:31:26.065Z,7.90
2018-04-11T15:33:55.413Z,7.90
2018-04-11T15:36:24.753Z,8.87
2018-04-11T15:38:54.839Z,7.30
2018-04-11T15:41:24.192Z,7.90
2018-04-11T15:43:53.503Z,8.37
2018-04-11T15:46:40.220Z,7.43
2018-04-11T15:49:10.932Z,8.30
2018-04-11T15:51:41.002Z,7.13
2018-04-11T15:54:10.366Z,7.87
2018-04-11T15:56:39.697Z,7.87
2018-04-11T15:59:09.043Z,6.80
2018-04-11T16:01:39.166Z,6.97
2018-04-11T16:04:09.271Z,6.70
2018-04-11T16:06:38.623Z,6.27
2018-04-11T16:09:08.122Z,5.90
2018-04-11T16:11:38.212Z,6.40
2018-04-11T16:14:07.535Z,6.77
2018-04-11T16:16:37.666Z,5.77
2018-04-11T16:19:07.018Z,6.13
2018-04-11T16:21:36.382Z,5.63
2018-04-11T16:24:05.707Z,5.40
2018-04-11T16:26:35.025Z,4.73
2018-04-11T16:29:05.361Z,5.47
2018-04-11T16:31:34.785Z,4.50
2018-04-11T16:34:04.096Z,4.50
2018-04-11T16:36:34.170Z,4.50
2018-04-11T16:39:03.504Z,4.60
2018-04-11T16:41:33.126Z,4.03
2018-04-11T16:44:03.243Z,4.27
2018-04-11T16:46:33.326Z,4.07
2018-04-11T16:49:02.661Z,4.07
2018-04-11T16:51:31.974Z,4.40
2018-04-11T16:54:02.048Z,3.83
2018-04-11T16:56:31.390Z,3.63
2018-04-11T16:59:01.775Z,4.07
2018-04-11T17:01:31.112Z,2.90
2018-04-11T17:04:00.425Z,3.03
2018-04-11T17:06:30.482Z,3.57
2018-04-11T17:09:00.501Z,3.33
2018-04-11T17:11:29.845Z,3.67
2018-04-11T17:13:59.139Z,2.70
2018-04-11T17:16:28.483Z,2.00
2018-04-11T17:18:58.560Z,2.23
2018-04-11T17:21:45.621Z,1.90
2018-04-11T17:24:33.985Z,2.00
2018-04-11T17:27:21.245Z,1.80
2018-04-11T17:30:08.531Z,2.30
2018-04-11T17:32:37.874Z,2.07
2018-04-11T17:35:07.166Z,2.27
2018-04-11T17:37:37.785Z,1.83
2018-04-11T17:40:07.103Z,1.57
2018-04-11T17:42:36.403Z,2.03
2018-04-11T17:45:05.759Z,2.53
2018-04-11T17:47:40.720Z,2.03
2018-04-11T17:50:10.094Z,2.03
2018-04-11T17:55:14.843Z,1.73
2018-04-11T17:57:44.972Z,1.80
2018-04-11T18:00:18.545Z,4.03
2018-04-11T18:02:47.870Z,8.83
2018-04-11T18:05:17.938Z,2.83
2018-04-11T18:07:47.256Z,2.93
2018-04-11T18:10:16.599Z,2.43
2018-04-11T18:12:46.671Z,2.73
2018-04-11T18:15:15.986Z,2.60
2018-04-11T18:17:45.295Z,2.47
2018-04-11T18:20:14.592Z,2.77
2018-04-11T18:22:43.916Z,1.80
2018-04-11T18:25:13.246Z,2.17
2018-04-11T18:27:42.571Z,1.97
2018-04-11T18:30:11.875Z,2.27
2018-04-11T18:32:41.198Z,2.67
2018-04-11T18:35:10.499Z,3.07
2018-04-11T18:37:39.812Z,2.20
2018-04-11T18:40:09.133Z,2.57
2018-04-11T18:42:38.439Z,2.23
2018-04-11T18:45:08.556Z,2.70
2018-04-11T18:47:37.894Z,3.57
2018-04-11T18:50:07.190Z,3.23
2018-04-11T18:52:36.516Z,3.57
2018-04-11T18:55:05.820Z,2.57
2018-04-11T18:57:35.120Z,3.40
2018-04-11T19:00:04.502Z,3.30
2018-04-11T19:02:33.890Z,4.13
2018-04-11T19:05:03.973Z,2.50
2018-04-11T19:07:33.293Z,3.13
2018-04-11T19:10:02.613Z,8.00
2018-04-11T19:12:32.694Z,5.03
2018-04-11T19:15:02.004Z,5.73
2018-04-11T19:17:31.325Z,6.10
2018-04-11T19:20:00.623Z,5.63
2018-04-11T19:22:29.980Z,5.70
2018-04-11T19:24:59.338Z,4.53
2018-04-11T19:27:28.648Z,4.17
2018-04-11T19:29:58.726Z,6.20
2018-04-11T19:32:28.056Z,6.57
2018-04-11T19:34:57.352Z,5.53
2018-04-11T19:37:26.710Z,6.90
2018-04-11T19:39:56.026Z,7.53
2018-04-11T19:42:25.339Z,7.13
2018-04-11T19:44:54.657Z,5.43
2018-04-11T19:47:23.965Z,6.30
2018-04-11T19:49:53.315Z,6.67
2018-04-11T19:52:23.398Z,8.23
2018-04-11T19:54:52.708Z,9.67
2018-04-11T19:57:22.909Z,10.17
2018-04-11T19:59:52.240Z,9.20
2018-04-11T20:02:22.328Z,7.57
2018-04-11T20:04:51.677Z,6.90
2018-04-11T20:07:20.987Z,8.77
2018-04-11T20:09:50.309Z,11.37
2018-04-11T20:12:19.636Z,7.77
2018-04-11T20:14:49.176Z,7.83
2018-04-11T20:17:18.557Z,8.17
2018-04-11T20:19:47.892Z,6.63
2018-04-11T20:22:17.234Z,8.50
2018-04-11T20:24:46.563Z,9.30
2018-04-11T20:27:15.863Z,7.83
2018-04-11T20:29:45.225Z,8.70
2018-04-11T20:32:14.590Z,9.87
2018-04-11T20:34:43.905Z,7.80
2018-04-11T20:37:13.970Z,7.93
2018-04-11T20:39:43.294Z,6.50
2018-04-11T20:42:12.628Z,8.07
2018-04-11T20:44:42.704Z,7.50
2018-04-11T20:47:12.027Z,6.53
2018-04-11T20:49:41.364Z,10.10
2018-04-11T20:52:10.661Z,10.37
2018-04-11T20:54:39.993Z,11.33
2018-04-11T20:57:09.337Z,11.90
2018-04-11T20:59:38.662Z,11.00
2018-04-11T21:02:08.772Z,12.87
2018-04-11T21:04:38.851Z,11.23
2018-04-11T21:07:08.186Z,12.57
2018-04-11T21:09:37.548Z,12.93
2018-04-11T21:12:06.861Z,14.17
2018-04-11T21:14:36.176Z,15.07
2018-04-11T21:17:05.515Z,14.93
2018-04-11T21:19:35.603Z,17.50
2018-04-11T21:22:04.942Z,20.93
2018-04-11T21:24:35.039Z,17.37
2018-04-11T21:27:04.453Z,20.13
2018-04-11T21:29:34.556Z,19.73
2018-04-11T21:32:03.874Z,21.70
2018-04-11T21:34:33.991Z,21.13
2018-04-11T21:37:03.327Z,22.80
2018-04-11T21:39:32.669Z,23.20
2018-04-11T21:42:01.987Z,22.53
2018-04-11T21:44:31.339Z,24.00
2018-04-11T21:47:00.675Z,24.27
2018-04-11T21:49:30.002Z,27.47
2018-04-11T21:51:59.370Z,22.13
2018-04-11T21:54:28.706Z,27.07
2018-04-11T21:56:58.019Z,29.23
2018-04-11T21:59:28.116Z,30.10
2018-04-11T22:01:57.427Z,34.20
2018-04-11T22:04:26.781Z,33.60
2018-04-11T22:06:56.095Z,33.90
2018-04-11T22:09:25.433Z,36.23
2018-04-11T22:11:54.775Z,38.03
2018-04-11T22:14:24.095Z,37.70
2018-04-11T22:16:55.754Z,37.67
2018-04-11T22:19:25.098Z,34.93
2018-04-11T22:21:54.442Z,34.60
2018-04-11T22:24:24.546Z,34.63
2018-04-11T22:26:54.627Z,39.53
2018-04-11T22:29:23.965Z,41.97
2018-04-11T22:31:53.300Z,36.73
2018-04-11T22:34:22.624Z,47.33
2018-04-11T22:36:51.971Z,41.80
2018-04-11T22:39:21.272Z,39.73
2018-04-11T22:41:50.615Z,42.97
2018-04-11T22:44:19.953Z,36.23
2018-04-11T22:46:49.274Z,34.70
2018-04-11T22:49:18.631Z,40.83
2018-04-11T22:51:47.948Z,44.70
2018-04-11T22:54:17.279Z,44.87
2018-04-11T22:56:46.636Z,42.20
2018-04-11T22:59:16.285Z,49.47
2018-04-11T23:01:46.510Z,48.13
2018-04-11T23:04:15.870Z,49.90
2018-04-11T23:06:45.185Z,46.27
2018-04-11T23:09:14.545Z,43.43
2018-04-11T23:11:44.686Z,44.70
2018-04-11T23:14:14.013Z,46.50
2018-04-11T23:16:43.376Z,49.23
2018-04-11T23:19:13.481Z,49.33
2018-04-11T23:21:42.805Z,51.90
2018-04-11T23:24:12.942Z,46.63
2018-04-11T23:26:42.279Z,48.43
2018-04-11T23:29:11.629Z,49.07
2018-04-11T23:31:41.746Z,54.30
2018-04-11T23:34:11.845Z,51.07
2018-04-11T23:36:41.204Z,53.03
2018-04-11T23:39:10.533Z,44.53
2018-04-11T23:41:39.864Z,51.47
2018-04-11T23:44:09.243Z,57.13
2018-04-11T23:46:38.599Z,50.67
2018-04-11T23:49:07.934Z,52.83
2018-04-11T23:51:37.297Z,47.57
2018-04-11T23:54:07.442Z,53.83
2018-04-11T23:56:36.764Z,54.17
2018-04-11T23:59:06.857Z,46.97
